Time;durP1;ratioP1;P1;durP2;ratioP2;P2;SDS_P1;SDS_P2;PMS_P1;PMS_P2;Temp;Humidity;BMP_temperature;BMP_pressure;BME280_temperature;BME280_humidity;BME280_pressure;Samples;Min_cycle;Max_cycle;Signal;HPM_P1;HPM_P2
2022/04/30 00:02:06;;;;;;;13.43;5.45;;;;;;;4.98;100.00;101279.28;5015810;28;20065;-86
2022/04/30 00:04:33;;;;;;;10.20;5.63;;;;;;;4.96;100.00;101274.00;4998254;28;20463;-87
2022/04/30 00:06:59;;;;;;;9.52;5.55;;;;;;;4.93;100.00;101276.63;4998159;28;20022;-85
2022/04/30 00:09:24;;;;;;;9.70;5.10;;;;;;;4.91;100.00;101270.44;5016017;28;20075;-86
2022/04/30 00:11:49;;;;;;;9.55;5.43;;;;;;;4.87;100.00;101266.84;4998205;28;20045;-86
2022/04/30 00:14:15;;;;;;;11.43;5.30;;;;;;;4.84;100.00;101260.66;5017164;28;20022;-87
2022/04/30 00:16:40;;;;;;;10.15;5.28;;;;;;;4.83;100.00;101261.50;5015633;28;20395;-86
2022/04/30 00:19:06;;;;;;;11.70;5.70;;;;;;;4.76;100.00;101258.81;4997688;28;20084;-87
2022/04/30 00:21:31;;;;;;;10.13;5.53;;;;;;;4.75;100.00;101262.34;4998440;28;20053;-87
2022/04/30 00:23:57;;;;;;;8.48;5.30;;;;;;;4.74;100.00;101260.53;5016225;28;20033;-87
2022/04/30 00:26:22;;;;;;;11.77;5.28;;;;;;;4.72;100.00;101262.28;5016494;28;20026;-87
2022/04/30 00:28:47;;;;;;;10.63;5.43;;;;;;;4.72;100.00;101259.66;5016588;28;20467;-86
2022/04/30 00:31:13;;;;;;;9.98;5.95;;;;;;;4.67;100.00;101256.06;5015474;28;20095;-87
2022/04/30 00:33:38;;;;;;;10.82;5.35;;;;;;;4.67;100.00;101253.41;5015515;28;20034;-87
2022/04/30 00:36:04;;;;;;;10.75;5.72;;;;;;;4.63;100.00;101255.16;5015165;28;20026;-86
2022/04/30 00:38:29;;;;;;;13.55;5.72;;;;;;;4.61;100.00;101253.38;5015346;28;20022;-86
2022/04/30 00:40:55;;;;;;;13.32;5.78;;;;;;;4.60;100.00;101256.88;5015235;28;20108;-86
2022/04/30 00:43:21;;;;;;;10.40;6.28;;;;;;;4.56;100.00;101246.25;5015294;28;20037;-86
2022/04/30 00:45:48;;;;;;;10.27;5.95;;;;;;;4.57;100.00;101250.69;5044150;23;20135;-79
2022/04/30 00:48:13;;;;;;;9.80;5.85;;;;;;;4.55;100.00;101255.09;5056290;28;20017;-79
2022/04/30 00:50:38;;;;;;;8.80;5.70;;;;;;;4.54;100.00;101253.28;5057089;28;20071;-79
2022/04/30 00:53:05;;;;;;;8.82;5.35;;;;;;;4.51;100.00;101252.41;5055770;28;20052;-79
2022/04/30 00:55:32;;;;;;;12.52;6.07;;;;;;;4.50;100.00;101242.69;5054514;28;20057;-78
2022/04/30 00:58:04;;;;;;;13.90;6.63;;;;;;;4.37;100.00;101239.91;5054602;28;20432;-80
2022/04/30 01:00:29;;;;;;;11.50;6.43;;;;;;;4.35;100.00;101234.59;5054408;28;20170;-78
2022/04/30 01:02:55;;;;;;;12.65;6.00;;;;;;;4.24;100.00;101233.59;5054401;28;20443;-78
2022/04/30 01:05:20;;;;;;;12.98;5.97;;;;;;;4.28;100.00;101237.16;5054805;28;20021;-78
2022/04/30 01:07:47;;;;;;;10.23;6.45;;;;;;;4.07;100.00;101236.91;5036763;28;20035;-79
2022/04/30 01:10:12;;;;;;;10.40;6.35;;;;;;;4.04;100.00;101230.69;5055486;28;20029;-79
2022/04/30 01:12:38;;;;;;;12.20;6.18;;;;;;;4.03;100.00;101235.09;5055152;28;20025;-78
2022/04/30 01:15:05;;;;;;;15.70;7.03;;;;;;;3.97;100.00;101219.19;5037403;28;20383;-79
2022/04/30 01:17:31;;;;;;;12.73;6.97;;;;;;;3.83;100.00;101230.44;5068889;28;20043;-79
2022/04/30 01:19:58;;;;;;;11.60;7.10;;;;;;;3.78;100.00;101229.50;5066798;28;20548;-79
2022/04/30 01:22:29;;;;;;;15.50;7.10;;;;;;;3.74;100.00;101223.28;5066850;28;20024;-79
2022/04/30 01:24:56;;;;;;;15.52;8.13;;;;;;;3.66;100.00;101223.16;5066565;28;20036;-80
2022/04/30 01:27:23;;;;;;;15.27;7.63;;;;;;;3.64;100.00;101222.25;5066296;28;20021;-79
2022/04/30 01:29:49;;;;;;;15.10;7.57;;;;;;;3.61;100.00;101216.94;5048057;28;20028;-79
2022/04/30 01:37:42;;;;;;;;;;;;;;;3.69;100.00;101203.81;5058053;28;20108;-78
2022/04/30 01:40:09;;;;;;;16.20;6.43;;;;;;;3.73;100.00;101204.78;5058287;28;20008;-79
2022/04/30 01:42:37;;;;;;;13.18;7.05;;;;;;;3.72;100.00;101195.94;5057312;28;20777;-79
2022/04/30 01:45:05;;;;;;;11.68;7.13;;;;;;;3.63;100.00;101196.72;5060881;28;20041;-79
2022/04/30 01:47:33;;;;;;;13.93;7.70;;;;;;;3.64;100.00;101201.13;5047871;28;20016;-80
2022/04/30 01:49:59;;;;;;;13.30;7.15;;;;;;;3.56;100.00;101195.75;5047065;28;20021;-79
2022/04/30 01:52:24;;;;;;;15.32;8.18;;;;;;;3.45;100.00;101203.50;5066928;28;20025;-79
2022/04/30 01:54:49;;;;;;;15.07;7.72;;;;;;;3.42;100.00;101202.59;5067162;28;20036;-79
2022/04/30 01:57:23;;;;;;;12.90;7.72;;;;;;;3.45;100.00;101198.22;5048829;28;20470;-80
2022/04/30 01:59:53;;;;;;;17.42;8.25;;;;;;;3.49;100.00;101198.28;5067314;28;20025;-79
2022/04/30 02:02:24;;;;;;;15.43;8.13;;;;;;;3.60;100.00;101199.31;5067227;28;20571;-79
2022/04/30 02:04:52;;;;;;;18.42;7.82;;;;;;;3.66;100.00;101194.09;5066107;28;20447;-79
2022/04/30 02:07:18;;;;;;;16.13;8.50;;;;;;;3.77;100.00;101198.66;5061364;28;20029;-78
2022/04/30 02:09:44;;;;;;;18.52;8.45;;;;;;;3.75;100.00;101197.75;5058386;28;20025;-79
2022/04/30 02:12:09;;;;;;;14.48;8.10;;;;;;;3.76;100.00;101194.25;5039411;28;20063;-79
2022/04/30 02:14:36;;;;;;;16.00;8.43;;;;;;;3.76;100.00;101191.59;5057827;28;20073;-78
2022/04/30 02:17:02;;;;;;;21.30;8.32;;;;;;;3.81;100.00;101192.56;5040528;28;20052;-79
2022/04/30 02:19:29;;;;;;;15.60;8.15;;;;;;;3.81;100.00;101192.56;5057689;28;20478;-80
2022/04/30 02:21:57;;;;;;;16.50;9.23;;;;;;;3.83;100.00;101185.53;5058228;28;20473;-78
2022/04/30 02:24:25;;;;;;;19.65;9.65;;;;;;;3.82;100.00;101178.47;5059007;28;20107;-78
2022/04/30 02:26:51;;;;;;;20.85;8.75;;;;;;;3.83;100.00;101180.25;5058210;28;20068;-79
2022/04/30 02:29:16;;;;;;;15.75;8.60;;;;;;;3.82;100.00;101178.47;5058061;28;20027;-78
2022/04/30 02:31:41;;;;;;;17.17;9.23;;;;;;;3.81;100.00;101174.06;5058522;28;20087;-80
2022/04/30 02:34:06;;;;;;;17.92;8.88;;;;;;;3.84;100.00;101170.56;5057813;28;20107;-78
2022/04/30 02:36:34;;;;;;;18.35;9.85;;;;;;;3.83;100.00;101161.75;5058798;28;20478;-78
2022/04/30 02:39:00;;;;;;;17.88;9.10;;;;;;;3.85;100.00;101172.31;5040076;28;20029;-79
2022/04/30 02:41:26;;;;;;;19.98;9.02;;;;;;;3.83;100.00;101169.69;5058393;28;20024;-79
2022/04/30 02:43:52;;;;;;;19.90;8.82;;;;;;;3.84;100.00;101181.13;5058895;28;20033;-79
2022/04/30 02:46:20;;;;;;;17.85;9.40;;;;;;;3.81;100.00;101176.69;5054735;28;20032;-77
2022/04/30 02:48:46;;;;;;;16.27;9.43;;;;;;;3.79;100.00;101170.50;5056865;28;20031;-78
2022/04/30 02:51:12;;;;;;;21.63;10.02;;;;;;;3.79;100.00;101167.84;5038862;28;20435;-79
2022/04/30 02:53:38;;;;;;;21.08;9.45;;;;;;;3.78;100.00;101160.81;5039143;28;20031;-79
2022/04/30 02:56:05;;;;;;;19.90;9.88;;;;;;;3.77;100.00;101153.72;5055401;28;20450;-78
2022/04/30 03:01:15;;;;;;;16.52;9.27;;;;;;;3.80;100.00;101159.06;5056578;28;20450;-79
2022/04/30 03:03:40;;;;;;;17.52;9.70;;;;;;;3.81;100.00;101150.28;5056193;28;20032;-78
2022/04/30 03:06:06;;;;;;;17.13;9.80;;;;;;;3.79;100.00;101157.28;5056297;28;20029;-78
2022/04/30 03:08:32;;;;;;;20.80;9.00;;;;;;;3.81;100.00;101155.56;5056781;28;20020;-79
2022/04/30 03:11:00;;;;;;;20.80;9.40;;;;;;;3.79;100.00;101162.56;5057439;28;20351;-79
2022/04/30 03:13:26;;;;;;;22.08;9.82;;;;;;;3.79;100.00;101146.72;5056835;28;20025;-79
2022/04/30 03:15:53;;;;;;;17.05;9.48;;;;;;;3.79;100.00;101136.13;5038109;28;20095;-79
2022/04/30 03:23:51;;;;;;;18.50;9.77;;;;;;;3.77;100.00;101140.53;5054883;28;20158;-80
2022/04/30 03:26:17;;;;;;;24.63;10.60;;;;;;;3.77;100.00;101133.50;5054729;28;20027;-80
2022/04/30 03:28:43;;;;;;;23.38;11.38;;;;;;;3.77;100.00;101129.97;5055018;28;20025;-80
2022/04/30 03:31:10;;;;;;;18.73;9.25;;;;;;;3.79;100.00;101128.22;5055037;28;20470;-80
2022/04/30 03:33:36;;;;;;;23.50;10.60;;;;;;;3.78;100.00;101134.38;5036976;28;20044;-80
2022/04/30 03:36:03;;;;;;;20.58;9.98;;;;;;;3.83;100.00;101131.78;5055018;28;20028;-81
2022/04/30 03:38:28;;;;;;;20.17;10.55;;;;;;;3.79;100.00;101121.19;5037350;28;20070;-80
2022/04/30 03:40:54;;;;;;;18.00;10.18;;;;;;;3.79;100.00;101133.50;5055937;28;20540;-80
2022/04/30 03:43:19;;;;;;;21.48;10.65;;;;;;;3.76;100.00;101125.56;5038023;28;20462;-80
2022/04/30 03:45:45;;;;;;;19.27;11.23;;;;;;;3.77;100.00;101127.31;5055731;28;20529;-79
2022/04/30 03:48:12;;;;;;;22.95;11.13;;;;;;;3.77;100.00;101122.03;5037781;28;20047;-80
2022/04/30 03:50:38;;;;;;;21.20;10.73;;;;;;;3.77;100.00;101127.31;5055744;28;20032;-80
2022/04/30 03:53:03;;;;;;;18.42;10.77;;;;;;;3.78;100.00;101126.47;5055619;28;20025;-80
2022/04/30 03:55:29;;;;;;;21.48;10.60;;;;;;;3.78;100.00;101124.72;5053907;28;20028;-80
2022/04/30 03:57:55;;;;;;;22.65;11.52;;;;;;;3.78;100.00;101121.19;5036730;28;20021;-79
2022/04/30 04:00:20;;;;;;;22.20;11.32;;;;;;;3.78;100.00;101131.75;5055243;28;20078;-80
2022/04/30 04:02:46;;;;;;;20.20;10.75;;;;;;;3.80;100.00;101130.00;5054597;28;20537;-80
2022/04/30 04:05:12;;;;;;;22.25;11.60;;;;;;;3.78;100.00;101129.09;5054853;28;20029;-80
2022/04/30 04:07:39;;;;;;;24.33;11.13;;;;;;;3.81;100.00;101134.44;5054801;28;20472;-80
2022/04/30 04:10:05;;;;;;;22.58;11.25;;;;;;;3.78;100.00;101129.09;5036794;28;20036;-80
2022/04/30 04:12:30;;;;;;;22.65;11.23;;;;;;;3.78;100.00;101126.47;5053748;28;20107;-80
2022/04/30 04:17:39;;;;;;;26.10;11.95;;;;;;;3.78;100.00;101129.09;5056042;28;20064;-79
2022/04/30 04:20:10;;;;;;;22.75;11.45;;;;;;;3.78;100.00;101130.00;5055157;28;20033;-80
2022/04/30 04:22:36;;;;;;;23.65;11.77;;;;;;;3.80;100.00;101127.34;5055110;28;20036;-80
2022/04/30 04:27:58;;;;;;;19.85;11.30;;;;;;;3.83;100.00;101132.69;5055836;28;20473;-79
2022/04/30 04:30:25;;;;;;;22.98;11.95;;;;;;;3.86;100.00;101140.66;5036844;28;20037;-81
2022/04/30 04:32:53;;;;;;;24.38;12.13;;;;;;;3.90;100.00;101139.81;5054698;28;20029;-81
2022/04/30 04:35:18;;;;;;;23.95;11.82;;;;;;;3.90;100.00;101134.53;5036261;28;20032;-80
2022/04/30 04:37:44;;;;;;;24.95;11.95;;;;;;;3.91;100.00;101136.31;5054177;28;20025;-79
2022/04/30 04:40:11;;;;;;;22.23;12.15;;;;;;;3.93;100.00;101143.34;5036275;28;20035;-80
2022/04/30 04:42:37;;;;;;;24.25;11.65;;;;;;;3.93;100.00;101140.72;5054266;28;20025;-80
2022/04/30 04:45:04;;;;;;;26.02;11.82;;;;;;;3.94;100.00;101139.84;5054269;28;20029;-79
2022/04/30 04:47:29;;;;;;;23.73;11.35;;;;;;;3.96;100.00;101138.09;5054932;28;20024;-80
2022/04/30 04:49:55;;;;;;;20.55;11.02;;;;;;;3.99;100.00;101140.78;5054975;28;20017;-79
2022/04/30 04:52:21;;;;;;;24.35;11.05;;;;;;;3.98;100.00;101141.66;5054937;28;20058;-80
2022/04/30 04:54:46;;;;;;;21.83;11.10;;;;;;;4.01;100.00;101147.88;5054815;28;20111;-81
2022/04/30 04:57:12;;;;;;;20.83;11.05;;;;;;;4.12;100.00;101149.75;5055425;28;20115;-81
2022/04/30 04:59:37;;;;;;;24.10;11.45;;;;;;;4.11;100.00;101140.91;5037323;28;20036;-81
2022/04/30 05:02:03;;;;;;;21.15;11.05;;;;;;;4.18;100.00;101135.69;5055631;28;20025;-81
2022/04/30 05:04:29;;;;;;;24.30;10.98;;;;;;;4.25;100.00;101140.19;5055722;28;20021;-81
2022/04/30 05:06:54;;;;;;;21.38;11.63;;;;;;;4.22;100.00;101141.03;5055028;28;20025;-82
2022/04/30 05:09:19;;;;;;;26.33;11.55;;;;;;;4.26;100.00;101139.28;5054565;28;20025;-82
2022/04/30 05:11:44;;;;;;;22.65;10.88;;;;;;;4.28;100.00;101144.63;5035710;28;20112;-82
2022/04/30 05:14:10;;;;;;;19.15;10.95;;;;;;;4.41;100.00;101138.56;5036709;28;20028;-82
2022/04/30 05:16:35;;;;;;;19.40;9.77;;;;;;;4.42;100.00;101137.69;5036079;28;20394;-81
2022/04/30 05:19:00;;;;;;;25.80;10.18;;;;;;;4.44;100.00;101135.94;5036031;28;20032;-83
2022/04/30 05:21:26;;;;;;;19.23;9.63;;;;;;;4.51;100.00;101144.81;5036405;28;20028;-83
2022/04/30 05:23:51;;;;;;;21.50;10.13;;;;;;;4.62;100.00;101147.56;5037676;28;20063;-83
2022/04/30 05:26:16;;;;;;;19.63;9.23;;;;;;;4.69;100.00;101145.88;5053917;28;20021;-83
2022/04/30 05:28:42;;;;;;;16.02;8.43;;;;;;;4.84;100.00;101155.69;5055314;28;20021;-83
2022/04/30 05:31:07;;;;;;;16.17;8.18;;;;;;;4.89;100.00;101158.38;5054899;28;20025;-83
2022/04/30 05:33:35;;;;;;;17.65;8.23;;;;;;;4.94;100.00;101147.81;5054245;28;20037;-83
2022/04/30 05:36:01;;;;;;;18.13;8.48;;;;;;;4.98;100.00;101152.25;5055642;28;20032;-83
2022/04/30 05:38:26;;;;;;;17.70;9.35;;;;;;;5.09;100.00;101154.97;5056201;28;20165;-83
2022/04/30 05:40:51;;;;;;;17.45;8.50;;;;;;;5.03;100.00;101156.69;5054728;28;20470;-82
2022/04/30 05:43:16;;;;;;;16.30;8.52;;;;;;;5.03;100.00;101148.75;5037525;28;20493;-83
2022/04/30 05:45:42;;;;;;;14.38;9.27;;;;;;;5.06;100.00;101155.84;5036083;28;20029;-82
2022/04/30 05:48:08;;;;;;;17.58;9.10;;;;;;;5.10;100.00;101156.75;5053616;28;20021;-82
2022/04/30 05:50:33;;;;;;;18.48;9.95;;;;;;;5.11;100.00;101153.22;5053518;28;20104;-82
2022/04/30 05:52:59;;;;;;;19.52;9.05;;;;;;;5.16;100.00;101151.47;5036122;28;20163;-81
2022/04/30 05:55:24;;;;;;;18.63;9.23;;;;;;;5.30;100.00;101163.94;5036723;28;20028;-82
2022/04/30 05:57:50;;;;;;;17.88;9.40;;;;;;;5.37;100.00;101165.75;5054683;28;20108;-81
2022/04/30 06:00:16;;;;;;;20.40;9.23;;;;;;;5.48;100.00;101169.34;5054281;28;20025;-82
2022/04/30 06:02:41;;;;;;;13.40;8.18;;;;;;;5.43;100.00;101171.09;5054562;28;20105;-82
2022/04/30 06:05:08;;;;;;;18.67;9.88;;;;;;;5.54;100.00;101167.59;5037538;28;20458;-81
2022/04/30 06:07:33;;;;;;;18.58;9.88;;;;;;;5.50;100.00;101166.69;5054592;28;20021;-82
2022/04/30 06:09:58;;;;;;;15.90;9.52;;;;;;;5.52;100.00;101166.69;5055626;28;20547;-82
2022/04/30 06:12:24;;;;;;;14.20;9.02;;;;;;;5.56;100.00;101168.50;5054615;28;20029;-83
2022/04/30 06:14:49;;;;;;;17.23;9.82;;;;;;;5.62;100.00;101171.16;5037122;28;20036;-82
2022/04/30 06:17:14;;;;;;;17.27;9.00;;;;;;;5.55;100.00;101169.38;5036542;28;20441;-83
2022/04/30 06:19:40;;;;;;;21.67;9.82;;;;;;;5.60;100.00;101172.91;5054716;28;20031;-82
2022/04/30 06:22:05;;;;;;;17.98;9.35;;;;;;;5.62;100.00;101171.16;5053373;28;20482;-83
2022/04/30 06:24:30;;;;;;;19.05;9.23;;;;;;;5.64;100.00;101169.44;5034874;28;20020;-82
2022/04/30 06:26:56;;;;;;;15.65;9.63;;;;;;;5.76;100.00;101170.34;5053822;28;20477;-82
2022/04/30 06:29:22;;;;;;;18.58;9.90;;;;;;;5.64;100.00;101156.19;5051833;28;20028;-83
2022/04/30 06:31:48;;;;;;;16.45;9.90;;;;;;;5.73;100.00;101163.25;5053354;28;20481;-83
2022/04/30 06:34:13;;;;;;;17.48;10.10;;;;;;;5.80;100.00;101166.81;5053744;28;20048;-82
2022/04/30 06:36:38;;;;;;;18.08;10.10;;;;;;;5.85;100.00;101170.38;5053938;28;20079;-81
2022/04/30 06:39:04;;;;;;;16.65;9.93;;;;;;;5.91;100.00;101178.38;5040726;28;20053;-82
2022/04/30 06:41:29;;;;;;;15.48;9.70;;;;;;;5.98;100.00;101176.59;5058290;28;20414;-82
2022/04/30 06:43:54;;;;;;;15.07;9.35;;;;;;;6.03;100.00;101177.50;5058457;28;20390;-82
2022/04/30 06:46:20;;;;;;;16.10;9.43;;;;;;;6.02;100.00;101178.41;5062953;22;20190;-83
2022/04/30 06:48:45;;;;;;;13.23;9.15;;;;;;;6.03;100.00;101174.00;5040451;28;20396;-83
2022/04/30 06:51:11;;;;;;;15.77;8.93;;;;;;;6.06;100.00;101181.03;5041828;28;20371;-84
2022/04/30 06:59:12;;;;;;;17.70;9.10;;;;;;;6.19;100.00;101180.25;5058062;28;20090;-81
2022/04/30 07:01:59;;;;;;;;;;;;;;;;;;;;;
2022/04/30 07:04:26;;;;;;;16.20;9.50;;;;;;;6.36;100.00;101176.75;5061945;28;20112;-85
2022/04/30 07:06:52;;;;;;;14.68;8.82;;;;;;;6.31;100.00;101168.78;5044369;28;20017;-84
2022/04/30 07:09:22;;;;;;;16.25;9.48;;;;;;;6.42;100.00;101167.91;5046588;28;20101;-85
2022/04/30 07:11:47;;;;;;;16.33;9.48;;;;;;;6.53;100.00;101170.56;5046889;28;20092;-85
2022/04/30 07:14:13;;;;;;;17.95;10.55;;;;;;;6.64;100.00;101171.50;5047323;28;20048;-85
2022/04/30 07:16:38;;;;;;;18.42;10.48;;;;;;;6.67;100.00;101179.47;5066918;28;20112;-83
2022/04/30 07:19:05;;;;;;;16.35;9.70;;;;;;;6.69;100.00;101172.38;5045807;28;20028;-81
2022/04/30 07:21:33;;;;;;;17.23;9.52;;;;;;;6.73;100.00;101175.91;5040093;28;20025;-83
2022/04/30 07:23:59;;;;;;;17.30;9.57;;;;;;;6.67;100.00;101178.56;5040494;28;20036;-81
2022/04/30 07:26:25;;;;;;;17.02;10.30;;;;;;;6.79;100.00;101172.38;5040672;28;20013;-85
2022/04/30 07:29:10;;;;;;;19.30;10.02;;;;;;;6.87;100.00;101180.34;5045562;28;20029;-85
2022/04/30 07:31:35;;;;;;;19.00;11.13;;;;;;;6.82;100.00;101177.69;5046753;28;20021;-85
2022/04/30 07:34:01;;;;;;;20.38;10.93;;;;;;;6.87;100.00;101175.91;5047635;28;20021;-86
2022/04/30 07:36:30;;;;;;;16.10;10.60;;;;;;;7.03;100.00;101176.81;5053648;28;20021;-87
2022/04/30 07:38:56;;;;;;;16.42;10.70;;;;;;;7.12;100.00;101175.00;5051239;28;20052;-84
2022/04/30 07:41:21;;;;;;;18.83;11.13;;;;;;;7.09;100.00;101180.31;5067361;28;20020;-86
2022/04/30 07:43:47;;;;;;;17.75;10.77;;;;;;;7.17;100.00;101172.31;5048244;28;20017;-85
2022/04/30 07:46:12;;;;;;;17.55;10.93;;;;;;;7.30;100.00;101179.41;5071134;28;20551;-88
2022/04/30 07:48:55;;;;;;;17.70;10.23;;;;;;;7.47;100.00;101171.38;5070235;28;20104;-86
2022/04/30 07:51:34;;;;;;;18.92;10.40;;;;;;;7.45;100.00;101172.28;5053144;28;20017;-86
2022/04/30 07:54:17;;;;;;;14.25;9.55;;;;;;;7.61;100.00;101175.78;5047076;28;20033;-87
2022/04/30 07:56:42;;;;;;;19.35;9.90;;;;;;;7.62;100.00;101172.25;5045818;28;20497;-86
2022/04/30 07:59:23;;;;;;;14.38;8.63;;;;;;;7.76;100.00;101166.84;5044903;28;20100;-86
2022/04/30 08:01:49;;;;;;;14.40;8.88;;;;;;;7.90;100.00;101161.50;5059711;28;20399;-87
2022/04/30 08:04:14;;;;;;;14.70;9.13;;;;;;;7.98;100.00;101173.84;5042251;28;20021;-85
2022/04/30 08:06:40;;;;;;;12.98;7.80;;;;;;;8.01;100.00;101166.75;5043773;28;20116;-85
2022/04/30 08:09:05;;;;;;;14.18;7.72;;;;;;;7.91;100.00;101173.88;5044197;28;20107;-82
2022/04/30 08:11:31;;;;;;;11.93;8.00;;;;;;;8.10;100.00;101171.13;5059209;28;20089;-84
2022/04/30 08:13:57;;;;;;;14.77;8.18;;;;;;;8.23;100.00;101165.75;5060377;28;20025;-84
2022/04/30 08:16:23;;;;;;;15.10;7.60;;;;;;;8.28;100.00;101169.25;5042915;28;20128;-84
2022/04/30 08:18:49;;;;;;;13.80;7.50;;;;;;;8.33;100.00;101167.44;5041932;28;20025;-83
2022/04/30 08:21:14;;;;;;;13.52;8.13;;;;;;;8.42;100.00;101165.63;5058101;28;20029;-84
2022/04/30 08:23:39;;;;;;;14.13;8.23;;;;;;;8.68;100.00;101172.56;5040815;28;20021;-85
2022/04/30 08:26:08;;;;;;;11.43;7.50;;;;;;;8.87;100.00;101169.75;5041308;28;20021;-82
2022/04/30 08:28:33;;;;;;;13.75;7.05;;;;;;;8.79;100.00;101176.03;5041462;28;20082;-85
2022/04/30 08:30:59;;;;;;;11.77;8.55;;;;;;;8.76;99.20;101170.72;5059444;28;20111;-85
2022/04/30 08:33:25;;;;;;;14.02;8.07;;;;;;;8.65;100.00;101162.84;5038858;28;20021;-84
2022/04/30 08:35:50;;;;;;;11.77;7.18;;;;;;;8.96;97.91;101164.34;5039588;28;20512;-82
2022/04/30 08:38:15;;;;;;;9.45;6.30;;;;;;;9.07;97.49;101168.69;5059243;28;20045;-85
2022/04/30 08:40:43;;;;;;;9.35;5.95;;;;;;;9.36;94.46;101173.72;5058541;28;20032;-85
2022/04/30 08:43:38;;;;;;;8.98;6.72;;;;;;;9.41;94.56;101179.00;5041979;28;20084;-85
2022/04/30 08:46:04;;;;;;;14.13;6.85;;;;;;;9.60;93.36;101168.13;5042127;28;20498;-85
2022/04/30 08:48:30;;;;;;;13.10;7.07;;;;;;;9.48;93.00;101172.69;5061045;28;20041;-84
2022/04/30 08:50:56;;;;;;;11.82;6.97;;;;;;;9.49;91.81;101174.47;5043567;28;20044;-86
2022/04/30 08:53:21;;;;;;;9.95;6.68;;;;;;;9.41;90.80;101168.34;5060405;28;20025;-86
2022/04/30 08:55:47;;;;;;;10.45;6.63;;;;;;;9.60;94.04;101163.69;5058906;28;20064;-87
2022/04/30 08:58:13;;;;;;;10.40;6.53;;;;;;;9.68;94.05;101165.38;5040965;28;20032;-85
2022/04/30 09:00:41;;;;;;;10.20;6.18;;;;;;;9.65;90.57;101162.75;5062921;28;20020;-82
2022/04/30 09:03:06;;;;;;;11.88;6.22;;;;;;;9.56;93.05;101163.75;5042120;28;20040;-81
2022/04/30 09:05:37;;;;;;;9.18;5.70;;;;;;;9.63;89.11;101167.22;5064318;28;20017;-85
2022/04/30 09:08:12;;;;;;;8.13;5.60;;;;;;;9.19;92.76;101168.56;5038009;28;20037;-83
2022/04/30 09:10:48;;;;;;;13.38;6.30;;;;;;;9.00;94.49;101160.75;5040633;28;20044;-85
2022/04/30 09:13:19;;;;;;;12.38;6.15;;;;;;;8.51;96.22;101160.22;5061646;28;20025;-84
2022/04/30 09:15:53;;;;;;;11.40;6.30;;;;;;;8.56;97.40;101150.44;5040764;28;20028;-85
2022/04/30 09:18:20;;;;;;;13.60;5.45;;;;;;;8.84;99.30;101149.34;5037627;28;20359;-83
2022/04/30 09:20:48;;;;;;;12.02;6.28;;;;;;;8.88;97.75;101148.44;5055458;28;20029;-85
2022/04/30 09:23:32;;;;;;;15.15;5.93;;;;;;;8.93;99.82;101148.38;5037838;28;20025;-87
2022/04/30 09:25:58;;;;;;;;;;;;;;;8.69;99.16;101153.91;5055120;28;20020;-86
2022/04/30 09:28:55;;;;;;;14.65;5.60;;;;;;;8.78;100.00;101154.75;5036984;28;19909;-88
2022/04/30 09:31:21;;;;;;;8.90;5.30;;;;;;;8.63;100.00;101153.97;5021680;28;20457;-86
2022/04/30 09:40:37;;;;;;;12.07;7.00;;;;;;;8.63;100.00;101153.97;5058121;28;20091;-86
2022/04/30 09:43:15;;;;;;;20.35;10.55;;;;;;;8.53;100.00;101158.44;5063250;28;20041;-86
2022/04/30 09:45:40;;;;;;;12.75;6.75;;;;;;;8.85;100.00;101155.56;5041060;28;20032;-88
2022/04/30 09:53:56;;;;;;;11.68;6.85;;;;;;;8.56;100.00;101158.41;5062318;28;20056;-86
2022/04/30 09:56:33;;;;;;;;;;;;;;;8.54;100.00;101149.56;5045621;28;20025;-85
2022/04/30 09:59:11;;;;;;;11.77;6.55;;;;;;;8.66;100.00;101145.09;5063477;28;20400;-85
2022/04/30 10:01:49;;;;;;;12.70;6.47;;;;;;;8.88;100.00;101142.22;5061589;28;20017;-87
2022/04/30 10:04:17;;;;;;;15.77;6.35;;;;;;;8.77;100.00;101145.88;5066717;28;20043;-87
2022/04/30 10:06:44;;;;;;;10.43;6.50;;;;;;;8.97;100.00;101143.94;5066221;28;20017;-86
2022/04/30 10:09:15;;;;;;;13.45;6.43;;;;;;;8.84;100.00;101138.69;5063793;28;20084;-87
2022/04/30 10:11:56;;;;;;;10.90;6.47;;;;;;;8.98;100.00;101137.69;5045563;28;20084;-87
2022/04/30 10:14:31;;;;;;;11.68;6.15;;;;;;;9.11;98.50;101134.00;5068391;28;20457;-87
2022/04/30 10:17:20;;;;;;;12.48;6.00;;;;;;;9.11;98.43;101133.13;5069315;28;20029;-87
2022/04/30 10:20:09;;;;;;;14.57;6.47;;;;;;;9.33;99.78;101131.09;5046947;28;20021;-85
2022/04/30 10:22:35;;;;;;;9.38;5.88;;;;;;;9.36;96.54;101135.50;5060765;28;20017;-85
2022/04/30 10:25:02;;;;;;;11.50;6.20;;;;;;;9.51;98.22;101126.44;5044561;28;20040;-86
2022/04/30 10:27:47;;;;;;;9.30;6.40;;;;;;;9.90;96.52;101128.63;5045268;28;20017;-86
2022/04/30 10:30:23;;;;;;;11.73;6.07;;;;;;;9.78;92.57;101126.13;5045350;28;20079;-84
2022/04/30 10:32:59;;;;;;;11.45;6.45;;;;;;;10.34;92.10;101122.66;5059858;28;20017;-83
2022/04/30 10:35:33;;;;;;;14.73;6.20;;;;;;;10.33;91.85;101123.59;5041563;28;20025;-86
2022/04/30 10:38:24;;;;;;;9.13;5.82;;;;;;;10.48;86.63;101130.47;5062724;28;20021;-84
2022/04/30 10:40:57;;;;;;;10.13;5.57;;;;;;;10.36;86.87;101123.50;5059165;28;20041;-86
2022/04/30 10:43:35;;;;;;;11.07;6.13;;;;;;;10.21;88.31;101115.75;5044985;28;20024;-85
2022/04/30 10:46:21;;;;;;;10.35;6.28;;;;;;;9.90;89.33;101125.97;5044963;28;20025;-86
2022/04/30 10:48:52;;;;;;;8.23;5.68;;;;;;;9.92;90.35;101126.81;5064083;28;20386;-85
2022/04/30 10:51:39;;;;;;;9.30;6.07;;;;;;;10.27;90.94;101123.66;5044814;28;20116;-85
2022/04/30 10:54:08;;;;;;;12.57;5.88;;;;;;;10.12;87.81;101117.66;5045957;28;20071;-86
2022/04/30 10:56:34;;;;;;;10.68;5.88;;;;;;;10.40;89.54;101116.34;5042408;28;20035;-84
2022/04/30 10:58:59;;;;;;;10.90;6.32;;;;;;;10.38;87.51;101113.72;5060337;28;20100;-85
2022/04/30 11:01:25;;;;;;;12.02;6.53;;;;;;;10.47;90.32;101114.44;5061718;28;20501;-86
2022/04/30 11:03:50;;;;;;;9.57;5.90;;;;;;;10.40;88.88;101116.34;5044023;28;20078;-86
2022/04/30 11:06:21;;;;;;;9.85;5.93;;;;;;;10.15;86.21;101106.06;5063202;28;20047;-86
2022/04/30 11:09:27;;;;;;;7.93;4.93;;;;;;;10.16;82.71;101108.69;5045172;28;20025;-87
2022/04/30 11:11:52;;;;;;;10.40;5.50;;;;;;;10.30;86.68;101104.06;5062779;28;20028;-86
2022/04/30 11:14:19;;;;;;;9.60;5.53;;;;;;;10.79;83.46;101102.38;5063318;28;20025;-86
2022/04/30 11:16:46;;;;;;;12.00;5.05;;;;;;;11.10;80.30;101095.59;5063087;28;20032;-86
2022/04/30 11:19:15;;;;;;;9.57;5.43;;;;;;;11.43;80.73;101086.91;5062809;28;20029;-85
2022/04/30 11:22:02;;;;;;;7.90;5.10;;;;;;;11.35;80.49;101086.19;5063331;28;20052;-87
2022/04/30 11:24:30;;;;;;;7.80;4.28;;;;;;;10.82;78.59;101099.63;5045430;28;20029;-87
2022/04/30 11:27:00;;;;;;;9.02;4.80;;;;;;;10.51;83.45;101094.84;5062759;28;20104;-86
2022/04/30 11:29:39;;;;;;;7.82;4.75;;;;;;;10.70;80.58;101084.72;5045316;28;20092;-86
2022/04/30 11:32:07;;;;;;;7.60;4.55;;;;;;;11.50;76.68;101085.88;5043508;28;20091;-86
2022/04/30 11:34:33;;;;;;;6.40;4.22;;;;;;;11.94;76.04;101076.91;5061675;28;20077;-86
2022/04/30 11:37:00;;;;;;;8.73;4.03;;;;;;;12.18;70.10;101073.72;5044791;28;20052;-86
2022/04/30 11:39:27;;;;;;;7.85;4.45;;;;;;;12.12;70.34;101069.34;5045143;28;20024;-86
2022/04/30 11:41:54;;;;;;;8.65;4.05;;;;;;;12.07;73.30;101068.56;5043849;28;20025;-86
2022/04/30 11:44:22;;;;;;;6.78;4.20;;;;;;;11.67;76.00;101073.94;5043002;28;20025;-85
2022/04/30 11:46:51;;;;;;;7.13;4.38;;;;;;;11.51;78.31;101068.94;5057793;28;20029;-85
2022/04/30 11:49:18;;;;;;;7.00;4.28;;;;;;;10.79;78.84;101072.13;5039889;28;20116;-85
2022/04/30 11:51:48;;;;;;;6.88;3.67;;;;;;;11.12;78.62;101071.50;5058708;28;20103;-86
2022/04/30 11:54:22;;;;;;;6.57;4.05;;;;;;;10.88;78.02;101071.03;5039560;28;20021;-86
2022/04/30 11:56:47;;;;;;;6.63;3.97;;;;;;;11.22;78.71;101061.50;5040150;28;20017;-85
2022/04/30 11:59:13;;;;;;;8.75;4.60;;;;;;;11.84;73.43;101062.84;5039053;28;20094;-84
2022/04/30 12:01:40;;;;;;;9.77;3.65;;;;;;;12.37;73.00;101057.19;5057472;28;20028;-85